Time;durP1;ratioP1;P1;durP2;ratioP2;P2;SDS_P1;SDS_P2;PMS_P1;PMS_P2;Temp;Humidity;BMP_temperature;BMP_pressure;BME280_temperature;BME280_humidity;BME280_pressure;Samples;Min_cycle;Max_cycle;Signal;HPM_P1;HPM_P2
2024/04/17 00:00:29;;;;;;;5.00;4.40;;;5.70;99.90;;;;;;5420156;26;20213;-65
2024/04/17 00:02:57;;;;;;;2.97;2.77;;;5.80;99.90;;;;;;5420727;26;20221;-65
2024/04/17 00:05:23;;;;;;;2.20;2.00;;;5.70;99.90;;;;;;5420180;26;20744;-65
2024/04/17 00:07:52;;;;;;;2.10;0.90;;;5.60;99.90;;;;;;5419966;26;20234;-64
2024/04/17 00:10:18;;;;;;;0.60;0.60;;;5.50;99.90;;;;;;5419934;26;20217;-64
2024/04/17 00:12:46;;;;;;;0.70;0.70;;;5.20;99.90;;;;;;5419857;26;20225;-64
2024/04/17 00:15:15;;;;;;;0.70;0.70;;;5.20;99.90;;;;;;5420452;26;20226;-66
2024/04/17 00:17:43;;;;;;;0.93;0.50;;;5.10;99.90;;;;;;5419682;26;20347;-66
2024/04/17 00:20:09;;;;;;;0.60;0.40;;;5.10;99.90;;;;;;5421344;26;20269;-66
2024/04/17 00:22:38;;;;;;;0.50;0.50;;;5.00;99.90;;;;;;5419596;26;20217;-64
2024/04/17 00:25:04;;;;;;;0.50;0.50;;;5.00;99.90;;;;;;5419776;26;20221;-66
2024/04/17 00:27:33;;;;;;;0.77;0.40;;;5.00;99.90;;;;;;5419596;26;20245;-65
2024/04/17 00:29:59;;;;;;;0.40;0.40;;;5.00;99.90;;;;;;5420080;26;20225;-65
2024/04/17 00:32:30;;;;;;;0.40;0.40;;;4.90;99.90;;;;;;5419893;26;20248;-65
2024/04/17 00:34:56;;;;;;;0.40;0.40;;;4.90;99.90;;;;;;5420912;26;20222;-65
2024/04/17 00:37:24;;;;;;;0.60;0.60;;;4.90;99.90;;;;;;5419387;26;20268;-65
2024/04/17 00:39:50;;;;;;;0.47;0.47;;;4.90;99.90;;;;;;5419485;26;20233;-66
2024/04/17 00:42:18;;;;;;;0.50;0.50;;;4.80;99.90;;;;;;5419457;26;20262;-66
2024/04/17 00:44:44;;;;;;;0.50;0.50;;;4.90;99.90;;;;;;5419155;26;20217;-65
2024/04/17 00:47:14;;;;;;;0.60;0.60;;;4.90;99.90;;;;;;5419348;26;20615;-65
2024/04/17 00:49:43;;;;;;;0.47;0.47;;;5.00;99.90;;;;;;5419397;26;20264;-65
2024/04/17 00:52:11;;;;;;;0.40;0.40;;;5.00;99.90;;;;;;5418972;26;20221;-65
2024/04/17 00:54:38;;;;;;;0.97;0.50;;;5.00;99.90;;;;;;5420040;26;20248;-66
2024/04/17 00:57:08;;;;;;;0.60;0.60;;;5.00;99.90;;;;;;5419025;26;20225;-66
2024/04/17 00:59:34;;;;;;;0.60;0.53;;;5.00;99.90;;;;;;5419192;26;20225;-65
2024/04/17 01:02:02;;;;;;;0.77;0.40;;;5.00;99.90;;;;;;5419227;26;20278;-65
2024/04/17 01:04:28;;;;;;;0.47;0.47;;;5.00;99.90;;;;;;5419198;26;20598;-65
2024/04/17 01:06:59;;;;;;;0.50;0.50;;;5.00;99.90;;;;;;5419050;26;20233;-65
2024/04/17 01:09:25;;;;;;;0.70;0.70;;;5.00;99.90;;;;;;5419525;26;20296;-65
2024/04/17 01:11:54;;;;;;;0.63;0.63;;;5.00;99.90;;;;;;5419283;26;20710;-65
2024/04/17 01:14:20;;;;;;;0.67;0.67;;;5.00;99.90;;;;;;5419179;26;20237;-65
2024/04/17 01:16:50;;;;;;;3.20;0.90;;;5.00;99.90;;;;;;5419458;26;20264;-65
2024/04/17 01:19:17;;;;;;;0.70;0.70;;;5.00;99.90;;;;;;5418472;26;20256;-65
2024/04/17 01:21:45;;;;;;;0.80;0.80;;;5.00;99.90;;;;;;5418632;26;20293;-65
2024/04/17 01:24:13;;;;;;;0.70;0.70;;;5.00;99.90;;;;;;5418927;26;20749;-65
2024/04/17 01:26:42;;;;;;;0.70;0.70;;;4.90;99.90;;;;;;5420505;26;20217;-66
2024/04/17 01:29:08;;;;;;;1.10;1.00;;;4.90;99.90;;;;;;5419016;26;20734;-65
2024/04/17 01:31:37;;;;;;;1.10;1.00;;;4.90;99.90;;;;;;5419797;26;20710;-64
2024/04/17 01:34:03;;;;;;;1.77;0.70;;;4.90;99.90;;;;;;5418888;26;20707;-64
2024/04/17 01:36:31;;;;;;;1.00;1.00;;;5.00;99.90;;;;;;5421829;26;20221;-66
2024/04/17 01:38:57;;;;;;;1.33;1.00;;;5.10;99.90;;;;;;5419407;26;20249;-65
2024/04/17 01:41:28;;;;;;;2.40;1.20;;;5.10;99.90;;;;;;5419505;26;20757;-65
2024/04/17 01:43:54;;;;;;;0.73;0.73;;;5.10;99.90;;;;;;5418565;26;20241;-65
2024/04/17 01:46:23;;;;;;;1.00;1.00;;;5.10;99.90;;;;;;5418517;26;20576;-65
2024/04/17 01:48:48;;;;;;;1.17;1.17;;;5.10;99.90;;;;;;5418446;26;20230;-65
2024/04/17 01:51:17;;;;;;;1.17;1.00;;;5.10;99.90;;;;;;5418585;26;20221;-65
2024/04/17 01:53:43;;;;;;;0.80;0.80;;;5.10;99.90;;;;;;5418758;26;20221;-65
2024/04/17 01:56:11;;;;;;;0.83;0.83;;;5.10;99.90;;;;;;5418370;26;20221;-65
2024/04/17 01:58:40;;;;;;;1.00;0.90;;;5.00;99.90;;;;;;5418342;26;20269;-65
2024/04/17 02:01:09;;;;;;;1.30;1.20;;;5.00;99.90;;;;;;5418575;26;20761;-65
2024/04/17 02:03:35;;;;;;;1.80;1.70;;;5.10;99.90;;;;;;5418555;26;20225;-65
2024/04/17 02:06:04;;;;;;;1.70;1.60;;;5.00;99.90;;;;;;5418464;26;20233;-65
2024/04/17 02:08:30;;;;;;;1.70;1.60;;;5.10;99.90;;;;;;5418357;26;20482;-65
2024/04/17 02:10:58;;;;;;;1.77;1.63;;;5.10;99.90;;;;;;5418602;26;20263;-65
2024/04/17 02:13:24;;;;;;;1.63;1.53;;;5.10;99.90;;;;;;5418268;26;20225;-65
2024/04/17 02:15:55;;;;;;;1.87;1.77;;;5.00;99.90;;;;;;5417955;26;20268;-65
2024/04/17 02:18:21;;;;;;;1.83;1.73;;;5.00;99.90;;;;;;5419119;26;20602;-66
2024/04/17 02:20:50;;;;;;;2.87;2.13;;;5.00;99.90;;;;;;5419448;26;20221;-65
2024/04/17 02:23:16;;;;;;;2.70;2.50;;;5.00;99.90;;;;;;5418503;26;20753;-65
2024/04/17 02:25:44;;;;;;;3.10;2.80;;;5.10;99.90;;;;;;5417842;26;20225;-65
2024/04/17 02:28:10;;;;;;;3.07;2.77;;;5.10;99.90;;;;;;5421693;26;20260;-65
2024/04/17 02:30:39;;;;;;;3.27;2.97;;;5.10;99.90;;;;;;5417615;26;20227;-65
2024/04/17 02:33:08;;;;;;;3.20;2.90;;;5.00;99.90;;;;;;5416449;26;20221;-65
2024/04/17 02:35:38;;;;;;;3.77;3.47;;;4.90;99.90;;;;;;5417839;26;20328;-65
2024/04/17 02:38:04;;;;;;;3.33;3.03;;;4.90;99.90;;;;;;5417498;26;20776;-65
2024/04/17 02:40:32;;;;;;;3.83;3.53;;;4.90;99.90;;;;;;5418468;26;20788;-65
2024/04/17 02:42:59;;;;;;;4.50;3.70;;;5.00;99.90;;;;;;5417847;26;20217;-65
2024/04/17 02:45:27;;;;;;;3.80;3.50;;;5.00;99.90;;;;;;5417702;26;20269;-65
2024/04/17 02:47:53;;;;;;;4.40;3.63;;;4.90;99.90;;;;;;5417718;26;20249;-65
2024/04/17 02:50:26;;;;;;;5.20;3.87;;;4.90;99.90;;;;;;5417751;26;20622;-64
2024/04/17 02:52:51;;;;;;;3.90;3.60;;;5.00;99.90;;;;;;5417692;26;20570;-64
2024/04/17 02:55:20;;;;;;;4.20;3.80;;;5.00;99.90;;;;;;5417770;26;20260;-65
2024/04/17 02:57:46;;;;;;;4.60;4.20;;;5.00;99.90;;;;;;5417564;26;20256;-65
2024/04/17 03:00:17;;;;;;;4.33;3.90;;;5.00;99.90;;;;;;5417439;26;20225;-65
2024/04/17 03:02:43;;;;;;;4.93;4.20;;;5.00;99.90;;;;;;5417711;26;20752;-65
2024/04/17 03:05:11;;;;;;;4.30;3.90;;;5.00;99.90;;;;;;5417573;26;20229;-65
2024/04/17 03:07:44;;;;;;;4.00;3.60;;;5.00;99.90;;;;;;5417308;26;20241;-65
2024/04/17 03:10:12;;;;;;;4.70;4.30;;;5.00;99.90;;;;;;5418207;26;20210;-65
2024/04/17 03:12:38;;;;;;;4.57;4.17;;;5.10;99.90;;;;;;5417752;26;20222;-65
2024/04/17 03:15:11;;;;;;;4.03;3.70;;;5.10;99.90;;;;;;5417116;26;20247;-65
2024/04/17 03:17:37;;;;;;;6.17;4.33;;;5.10;99.90;;;;;;5417137;26;20320;-65
2024/04/17 03:20:06;;;;;;;4.20;3.80;;;5.10;99.90;;;;;;5417594;26;20229;-65
2024/04/17 03:22:32;;;;;;;4.40;4.00;;;5.00;99.90;;;;;;5417291;26;20230;-65
2024/04/17 03:25:03;;;;;;;4.43;4.03;;;4.90;99.90;;;;;;5416875;26;20263;-65
2024/04/17 03:27:29;;;;;;;4.63;4.13;;;4.90;99.90;;;;;;5416878;26;20286;-65
2024/04/17 03:29:58;;;;;;;4.10;3.70;;;4.80;99.90;;;;;;5417274;26;20316;-66
2024/04/17 03:32:24;;;;;;;5.37;4.87;;;4.80;99.90;;;;;;5416938;26;20218;-66
2024/04/17 03:34:52;;;;;;;4.37;3.97;;;4.70;99.90;;;;;;5416616;26;20229;-65
2024/04/17 03:37:21;;;;;;;4.77;4.27;;;4.70;99.90;;;;;;5416824;26;20241;-66
2024/04/17 03:39:49;;;;;;;4.47;3.90;;;4.70;99.90;;;;;;5416550;26;20314;-66
2024/04/17 03:42:20;;;;;;;4.47;3.83;;;4.70;99.90;;;;;;5416486;26;20221;-65
2024/04/17 03:44:49;;;;;;;4.63;4.10;;;4.70;99.90;;;;;;5420444;26;20221;-66
2024/04/17 03:47:17;;;;;;;5.33;4.77;;;4.80;99.90;;;;;;5420988;26;20221;-65
2024/04/17 03:49:46;;;;;;;4.67;4.27;;;4.70;99.90;;;;;;5421270;26;20324;-65
2024/04/17 03:52:12;;;;;;;7.33;6.20;;;4.70;99.90;;;;;;5420671;26;20221;-65
2024/04/17 03:54:40;;;;;;;7.47;6.10;;;4.60;99.90;;;;;;5421417;26;20260;-65
2024/04/17 03:57:06;;;;;;;7.20;5.67;;;4.60;99.90;;;;;;5420713;26;20226;-65
2024/04/17 03:59:37;;;;;;;6.47;5.80;;;4.60;99.90;;;;;;5420239;26;20256;-65
2024/04/17 04:02:06;;;;;;;6.10;5.50;;;4.60;99.90;;;;;;5420191;26;20568;-65
2024/04/17 04:04:34;;;;;;;5.83;5.10;;;4.60;99.90;;;;;;5420015;26;20230;-65
2024/04/17 04:07:00;;;;;;;6.67;5.90;;;4.50;99.90;;;;;;5419897;26;20233;-65
2024/04/17 04:09:29;;;;;;;6.70;5.40;;;4.50;99.90;;;;;;5444021;21;20260;-70
2024/04/17 04:11:55;;;;;;;7.23;5.70;;;4.50;99.90;;;;;;5420142;26;20316;-70
2024/04/17 04:14:23;;;;;;;9.47;5.50;;;4.60;99.90;;;;;;5420742;26;20226;-71
2024/04/17 04:16:52;;;;;;;6.40;5.43;;;4.60;99.90;;;;;;5425238;26;20222;-71
2024/04/17 04:19:21;;;;;;;6.10;5.17;;;4.60;99.90;;;;;;5422678;26;20268;-71
2024/04/17 04:21:47;;;;;;;6.70;5.97;;;4.60;99.90;;;;;;5422214;26;20221;-70
2024/04/17 04:24:16;;;;;;;9.00;6.57;;;4.60;99.90;;;;;;5420151;26;20316;-71
2024/04/17 04:26:42;;;;;;;6.60;5.93;;;4.70;99.90;;;;;;5422081;26;20244;-71
2024/04/17 04:29:10;;;;;;;7.10;6.37;;;4.80;99.90;;;;;;5420046;26;20565;-71
2024/04/17 04:31:37;;;;;;;7.37;6.27;;;4.80;99.90;;;;;;5419780;26;20217;-71
2024/04/17 04:34:08;;;;;;;8.73;6.77;;;4.80;99.90;;;;;;5420640;26;20225;-71
2024/04/17 04:36:33;;;;;;;8.60;7.33;;;4.90;99.90;;;;;;5419739;26;20218;-70
2024/04/17 04:39:02;;;;;;;9.53;6.83;;;4.90;99.90;;;;;;5419715;26;20221;-71
2024/04/17 04:41:30;;;;;;;6.80;6.10;;;4.90;99.90;;;;;;5420026;26;20268;-71
2024/04/17 04:43:58;;;;;;;7.93;6.37;;;4.80;99.90;;;;;;5420141;26;20233;-71
2024/04/17 04:46:24;;;;;;;8.43;6.03;;;4.80;99.90;;;;;;5420239;26;20218;-71
2024/04/17 04:48:53;;;;;;;6.87;5.90;;;4.90;99.90;;;;;;5420481;26;20289;-71
2024/04/17 04:51:21;;;;;;;8.13;6.00;;;4.90;99.90;;;;;;5423037;26;20264;-71
2024/04/17 04:53:50;;;;;;;7.47;5.53;;;4.90;99.90;;;;;;5423565;26;20253;-71
2024/04/17 04:56:16;;;;;;;7.50;6.20;;;4.90;99.90;;;;;;5418755;26;20690;-71
2024/04/17 04:58:45;;;;;;;8.07;6.60;;;5.00;99.90;;;;;;5423910;26;20325;-71
2024/04/17 05:01:11;;;;;;;7.97;6.37;;;5.00;99.90;;;;;;5430583;26;20241;-71
2024/04/17 05:03:40;;;;;;;6.30;5.47;;;5.00;99.90;;;;;;5433102;26;20261;-71
2024/04/17 05:06:06;;;;;;;5.67;5.07;;;5.00;99.90;;;;;;5432442;26;20256;-72
2024/04/17 05:08:37;;;;;;;9.23;6.20;;;5.00;99.90;;;;;;5434871;26;20224;-72
2024/04/17 05:11:03;;;;;;;8.77;6.30;;;5.10;99.90;;;;;;5420013;26;20233;-71
2024/04/17 05:13:31;;;;;;;8.03;5.87;;;5.10;99.90;;;;;;5419339;26;20217;-70
2024/04/17 05:15:57;;;;;;;6.83;5.67;;;5.10;99.90;;;;;;5419741;26;20218;-71
2024/04/17 05:18:26;;;;;;;7.20;6.20;;;5.10;99.90;;;;;;5419624;26;20222;-71
2024/04/17 05:20:52;;;;;;;7.33;6.17;;;5.10;99.90;;;;;;5419480;26;20722;-71
2024/04/17 05:23:20;;;;;;;8.53;7.20;;;5.10;99.90;;;;;;5419203;26;20272;-71
2024/04/17 05:25:49;;;;;;;7.67;6.43;;;5.20;99.90;;;;;;5419314;26;20230;-71
2024/04/17 05:28:17;;;;;;;9.87;6.60;;;5.20;99.90;;;;;;5419631;26;20214;-72
2024/04/17 05:30:43;;;;;;;8.80;7.00;;;5.30;99.90;;;;;;5419026;26;20245;-72
2024/04/17 05:33:12;;;;;;;9.47;7.43;;;5.20;99.90;;;;;;5420688;26;20622;-71
2024/04/17 05:35:38;;;;;;;8.93;6.97;;;5.30;99.90;;;;;;5419266;26;20261;-71
2024/04/17 05:38:06;;;;;;;7.73;6.67;;;5.40;99.90;;;;;;5418931;26;20221;-71
2024/04/17 05:40:34;;;;;;;8.80;7.20;;;5.40;99.90;;;;;;5419129;26;20256;-71
2024/04/17 05:43:06;;;;;;;9.77;7.07;;;5.50;99.90;;;;;;5419087;26;20267;-71
2024/04/17 05:45:31;;;;;;;8.50;7.27;;;5.50;99.90;;;;;;5418957;26;20252;-71
2024/04/17 05:48:00;;;;;;;9.23;7.60;;;5.50;99.90;;;;;;5419208;26;20573;-72
2024/04/17 05:50:27;;;;;;;8.20;7.03;;;5.50;99.90;;;;;;5421967;26;20249;-72
2024/04/17 05:52:56;;;;;;;7.97;7.13;;;5.50;99.90;;;;;;5423292;26;20326;-71
2024/04/17 05:55:22;;;;;;;9.80;7.83;;;5.60;99.90;;;;;;5418799;26;20744;-71
2024/04/17 05:57:51;;;;;;;8.80;7.80;;;5.60;99.90;;;;;;5418502;26;20217;-71
2024/04/17 06:00:20;;;;;;;9.60;7.70;;;5.60;99.90;;;;;;5418487;26;20324;-71
2024/04/17 06:02:49;;;;;;;11.20;8.37;;;5.60;99.90;;;;;;5418569;26;20321;-71
2024/04/17 06:05:15;;;;;;;11.20;9.33;;;5.60;99.90;;;;;;5418435;26;20222;-71
2024/04/17 06:07:44;;;;;;;10.27;8.47;;;5.60;99.90;;;;;;5418146;26;20260;-71
2024/04/17 06:10:10;;;;;;;10.63;8.30;;;5.60;99.90;;;;;;5418176;26;20233;-71
2024/04/17 06:12:42;;;;;;;11.97;9.43;;;5.60;99.90;;;;;;5418657;26;20752;-71
2024/04/17 06:15:09;;;;;;;12.33;9.77;;;5.60;99.90;;;;;;5418279;26;20221;-71
2024/04/17 06:17:40;;;;;;;16.83;10.33;;;5.60;99.90;;;;;;5418091;26;20728;-71
2024/04/17 06:20:06;;;;;;;11.23;8.40;;;5.60;99.90;;;;;;5418347;26;20574;-71
2024/04/17 06:22:35;;;;;;;13.23;7.20;;;5.60;99.90;;;;;;5417862;26;20226;-71
2024/04/17 06:25:01;;;;;;;8.90;7.20;;;5.50;99.90;;;;;;5417864;26;20560;-71
2024/04/17 06:27:30;;;;;;;9.60;7.57;;;5.40;99.90;;;;;;5418100;26;20229;-71
2024/04/17 06:29:56;;;;;;;8.83;6.87;;;5.50;99.90;;;;;;5417939;26;20264;-71
2024/04/17 06:32:24;;;;;;;9.73;7.97;;;5.60;99.90;;;;;;5417998;26;20276;-71
2024/04/17 06:34:53;;;;;;;8.97;7.23;;;5.70;99.90;;;;;;5418267;26;20273;-71
2024/04/17 06:37:21;;;;;;;9.37;7.60;;;5.80;99.90;;;;;;5417767;26;20321;-71
2024/04/17 06:39:47;;;;;;;9.07;7.17;;;5.90;99.90;;;;;;5417681;26;20260;-71
2024/04/17 06:42:16;;;;;;;7.83;6.37;;;6.10;99.90;;;;;;5417788;26;20233;-71
2024/04/17 06:44:41;;;;;;;8.70;6.60;;;6.20;99.90;;;;;;5417733;26;20229;-71
2024/04/17 06:47:10;;;;;;;6.37;5.33;;;6.20;99.90;;;;;;5418310;26;20247;-71
2024/04/17 06:49:36;;;;;;;6.07;5.27;;;6.20;99.90;;;;;;5426805;26;20259;-70
2024/04/17 06:52:07;;;;;;;6.77;5.87;;;6.20;99.90;;;;;;5430759;26;20217;-70
2024/04/17 06:54:33;;;;;;;7.73;5.77;;;6.20;99.90;;;;;;5426548;26;20217;-70
2024/04/17 06:57:02;;;;;;;6.30;5.33;;;6.20;99.90;;;;;;5417888;26;20267;-70
2024/04/17 06:59:28;;;;;;;6.70;6.00;;;6.40;99.90;;;;;;5417600;26;20234;-71
2024/04/17 07:01:56;;;;;;;8.63;6.87;;;6.40;99.90;;;;;;5417314;26;20256;-70
2024/04/17 07:04:23;;;;;;;7.17;6.37;;;6.40;99.90;;;;;;5417674;26;20218;-70
2024/04/17 07:06:51;;;;;;;8.20;6.70;;;6.30;99.90;;;;;;5417380;26;20260;-71
2024/04/17 07:09:20;;;;;;;8.07;7.07;;;6.30;99.90;;;;;;5417158;26;20233;-71
2024/04/17 07:11:48;;;;;;;8.80;7.80;;;6.40;99.90;;;;;;5417170;26;20214;-71
2024/04/17 07:14:14;;;;;;;9.40;6.73;;;6.40;99.90;;;;;;5417156;26;20259;-71
2024/04/17 07:16:43;;;;;;;9.70;7.77;;;6.50;99.90;;;;;;5417359;26;20225;-71
2024/04/17 07:19:09;;;;;;;13.83;7.90;;;6.40;99.90;;;;;;5419461;26;20739;-71
2024/04/17 07:21:38;;;;;;;10.43;8.40;;;6.40;99.90;;;;;;5420751;26;20293;-71
2024/04/17 07:24:04;;;;;;;9.77;8.03;;;6.40;99.90;;;;;;5420906;26;20258;-71
2024/04/17 07:26:35;;;;;;;9.53;7.07;;;6.40;99.90;;;;;;5420779;26;20272;-71
2024/04/17 07:29:01;;;;;;;8.97;6.80;;;6.50;99.90;;;;;;5420801;26;20213;-70
2024/04/17 07:31:29;;;;;;;6.87;6.17;;;6.50;99.90;;;;;;5420635;26;20722;-70
2024/04/17 07:33:55;;;;;;;6.20;5.60;;;6.50;99.90;;;;;;5420631;26;20221;-70
2024/04/17 07:36:24;;;;;;;8.10;6.30;;;6.40;99.90;;;;;;5420379;26;20263;-70
2024/04/17 07:38:50;;;;;;;6.57;5.80;;;6.30;99.90;;;;;;5420524;26;20222;-71
2024/04/17 07:41:18;;;;;;;6.60;5.83;;;6.20;99.90;;;;;;5420335;26;20229;-70
2024/04/17 07:43:47;;;;;;;7.03;5.47;;;6.20;99.90;;;;;;5420267;26;20749;-70
2024/04/17 07:46:15;;;;;;;7.90;6.83;;;6.20;99.90;;;;;;5420081;26;20610;-70
2024/04/17 07:48:41;;;;;;;7.33;6.07;;;6.20;99.90;;;;;;5420522;26;20248;-70
2024/04/17 07:51:10;;;;;;;6.90;6.20;;;6.30;99.90;;;;;;5420331;26;20233;-70
2024/04/17 07:53:35;;;;;;;7.47;6.20;;;6.30;99.90;;;;;;5420090;26;20225;-70
2024/04/17 07:56:04;;;;;;;7.80;6.93;;;6.30;99.90;;;;;;5420158;26;20260;-70
2024/04/17 07:58:30;;;;;;;8.40;7.37;;;6.40;99.90;;;;;;5420156;26;20221;-70
2024/04/17 08:01:01;;;;;;;9.37;8.20;;;6.30;99.90;;;;;;5419892;26;20638;-70
2024/04/17 08:03:27;;;;;;;9.20;8.23;;;6.50;99.90;;;;;;5420074;26;20252;-71
2024/04/17 08:05:55;;;;;;;9.97;8.20;;;6.60;99.90;;;;;;5419876;26;20225;-71
2024/04/17 08:08:21;;;;;;;11.87;7.63;;;6.80;99.90;;;;;;5420069;26;20272;-70
2024/04/17 08:10:50;;;;;;;8.10;6.90;;;7.00;99.90;;;;;;5419947;26;20234;-70
2024/04/17 08:13:16;;;;;;;9.30;7.87;;;7.30;99.90;;;;;;5419831;26;20253;-70
2024/04/17 08:15:45;;;;;;;9.10;8.17;;;7.50;99.90;;;;;;5420007;26;20229;-70
2024/04/17 08:18:13;;;;;;;7.80;7.07;;;7.60;99.90;;;;;;5419688;26;20221;-71
2024/04/17 08:20:42;;;;;;;10.03;7.57;;;7.40;99.90;;;;;;5420100;26;20237;-71
2024/04/17 08:23:08;;;;;;;8.87;7.90;;;7.60;99.90;;;;;;5419735;26;20221;-71
2024/04/17 08:25:36;;;;;;;7.97;6.97;;;7.80;99.90;;;;;;5419683;26;20264;-70
2024/04/17 08:28:02;;;;;;;7.60;6.80;;;7.60;99.90;;;;;;5420205;26;20229;-71
2024/04/17 08:30:32;;;;;;;8.63;7.17;;;7.60;99.90;;;;;;5419778;26;20230;-70
2024/04/17 08:32:57;;;;;;;7.87;7.07;;;7.30;99.90;;;;;;5420493;26;20571;-71
2024/04/17 08:35:28;;;;;;;9.70;7.93;;;7.30;99.90;;;;;;5420257;26;20255;-71
2024/04/17 08:37:54;;;;;;;10.40;8.50;;;7.30;99.90;;;;;;5419830;26;20710;-71
2024/04/17 08:40:23;;;;;;;11.97;8.77;;;7.40;99.90;;;;;;5419421;26;20241;-71
2024/04/17 08:42:51;;;;;;;9.13;7.33;;;7.50;99.90;;;;;;5419605;26;20234;-71
2024/04/17 08:45:35;;;;;;;9.57;8.17;;;7.70;99.90;;;;;;5419513;26;20654;-71
2024/04/17 08:48:01;;;;;;;9.13;7.63;;;7.80;99.90;;;;;;5419658;26;20232;-71
2024/04/17 08:50:33;;;;;;;8.57;7.67;;;7.90;99.90;;;;;;5419823;26;20233;-71
2024/04/17 08:53:00;;;;;;;9.33;8.07;;;7.80;99.90;;;;;;5419369;26;20225;-70
2024/04/17 08:55:30;;;;;;;9.60;7.90;;;7.80;99.90;;;;;;5419293;26;20256;-71
2024/04/17 08:57:56;;;;;;;10.67;7.97;;;7.70;99.90;;;;;;5421302;26;20221;-71
2024/04/17 09:00:26;;;;;;;8.13;7.33;;;7.70;99.90;;;;;;5426839;26;20233;-71
2024/04/17 09:02:56;;;;;;;9.83;7.30;;;7.80;99.90;;;;;;5419719;26;20221;-71
2024/04/17 09:05:25;;;;;;;7.93;7.17;;;7.90;99.90;;;;;;5420785;26;20314;-71
2024/04/17 09:07:57;;;;;;;9.00;6.63;;;7.80;99.90;;;;;;5427196;26;20218;-71
2024/04/17 09:10:26;;;;;;;7.77;6.97;;;7.60;99.90;;;;;;5419709;26;20589;-72
2024/04/17 09:12:52;;;;;;;7.87;7.10;;;7.50;99.90;;;;;;5424565;26;20274;-71
2024/04/17 09:15:21;;;;;;;10.57;7.30;;;7.50;99.90;;;;;;5425420;26;20217;-71
2024/04/17 09:17:47;;;;;;;7.17;6.43;;;7.40;99.90;;;;;;5419214;26;20276;-71
2024/04/17 09:20:16;;;;;;;10.53;7.00;;;7.30;99.90;;;;;;5419115;26;20273;-71
2024/04/17 09:22:42;;;;;;;10.73;6.77;;;7.30;99.90;;;;;;5419047;26;20653;-71
2024/04/17 09:25:17;;;;;;;7.43;6.63;;;7.40;99.90;;;;;;5418966;26;20218;-71
2024/04/17 09:27:45;;;;;;;7.20;6.50;;;7.50;99.90;;;;;;5418874;26;20602;-71
2024/04/17 09:30:15;;;;;;;7.33;6.63;;;7.60;99.90;;;;;;5418653;26;20237;-71
2024/04/17 09:32:41;;;;;;;9.53;7.73;;;7.60;99.90;;;;;;5419062;26;20221;-71
2024/04/17 09:35:12;;;;;;;7.93;7.13;;;7.80;99.90;;;;;;5418784;26;20225;-71
2024/04/17 09:37:39;;;;;;;8.10;6.63;;;7.90;99.90;;;;;;5419444;26;20194;-71
2024/04/17 09:40:09;;;;;;;7.67;6.43;;;8.10;99.90;;;;;;5418642;26;20613;-71
2024/04/17 09:42:41;;;;;;;9.00;7.50;;;7.70;99.90;;;;;;5418599;26;20260;-71
2024/04/17 09:45:13;;;;;;;7.90;6.77;;;7.40;99.90;;;;;;5419044;26;20582;-71
2024/04/17 09:47:41;;;;;;;9.37;8.00;;;6.90;99.90;;;;;;5419054;26;20275;-71
2024/04/17 09:50:13;;;;;;;9.87;7.50;;;6.80;99.90;;;;;;5418683;26;20754;-71
2024/04/17 09:52:39;;;;;;;10.37;7.73;;;6.50;99.90;;;;;;5419186;26;20186;-71
2024/04/17 09:55:11;;;;;;;9.70;8.70;;;6.30;99.90;;;;;;5418571;26;20225;-71
2024/04/17 09:57:40;;;;;;;8.23;5.90;;;6.50;99.90;;;;;;5418490;26;20252;-71
2024/04/17 10:00:12;;;;;;;7.27;5.47;;;6.10;99.90;;;;;;5418260;26;20569;-68
2024/04/17 10:02:39;;;;;;;5.20;4.50;;;5.90;99.90;;;;;;5418282;26;20615;-68
2024/04/17 10:05:10;;;;;;;7.07;4.77;;;5.50;99.90;;;;;;5418415;26;20287;-68
2024/04/17 10:07:37;;;;;;;5.23;4.73;;;5.50;99.90;;;;;;5418521;26;20178;-68
2024/04/17 10:10:08;;;;;;;8.43;5.17;;;5.40;99.90;;;;;;5417866;26;20249;-68
2024/04/17 10:12:35;;;;;;;7.23;4.93;;;5.50;99.90;;;;;;5418953;26;20663;-67
2024/04/17 10:15:10;;;;;;;8.43;5.53;;;5.40;99.90;;;;;;5418415;26;20322;-68
2024/04/17 10:17:36;;;;;;;9.50;5.80;;;5.30;99.90;;;;;;5418109;26;20713;-67
2024/04/17 10:20:05;;;;;;;5.23;4.73;;;5.50;99.90;;;;;;5418100;26;20241;-67
2024/04/17 10:22:32;;;;;;;8.40;5.53;;;5.30;99.90;;;;;;5418135;26;20364;-67
2024/04/17 10:25:08;;;;;;;5.90;5.23;;;5.40;99.90;;;;;;5417967;26;20217;-67
2024/04/17 10:27:36;;;;;;;6.00;5.40;;;5.50;99.90;;;;;;5417971;26;20225;-70
2024/04/17 10:30:12;;;;;;;6.43;5.83;;;5.70;99.90;;;;;;5418241;26;20242;-70
2024/04/17 10:32:37;;;;;;;8.13;5.80;;;6.00;99.90;;;;;;5417863;26;20222;-70
2024/04/17 10:35:16;;;;;;;6.93;5.63;;;6.30;99.90;;;;;;5417651;26;20291;-70
2024/04/17 10:37:45;;;;;;;7.37;5.53;;;6.50;99.90;;;;;;5417757;26;20248;-70
2024/04/17 10:40:13;;;;;;;6.47;5.00;;;6.70;99.90;;;;;;5418072;26;20298;-70
2024/04/17 10:42:40;;;;;;;8.47;5.67;;;6.80;99.90;;;;;;5418040;26;20222;-70
2024/04/17 10:45:12;;;;;;;7.17;5.50;;;7.10;99.90;;;;;;5418068;26;20259;-70
2024/04/17 10:47:37;;;;;;;8.57;5.83;;;7.20;99.90;;;;;;5417693;26;20214;-70
2024/04/17 10:50:07;;;;;;;6.37;5.17;;;7.30;99.90;;;;;;5417542;26;20605;-71
2024/04/17 10:52:33;;;;;;;6.63;5.27;;;7.40;99.90;;;;;;5417851;26;20225;-71
2024/04/17 10:55:03;;;;;;;5.40;4.90;;;7.40;99.90;;;;;;5426813;26;20258;-71
2024/04/17 10:57:30;;;;;;;6.83;5.23;;;7.50;99.90;;;;;;5442806;26;20239;-71
2024/04/17 10:59:58;;;;;;;7.87;5.80;;;7.90;99.90;;;;;;5441795;26;20241;-71
2024/04/17 11:02:28;;;;;;;7.47;5.77;;;8.20;99.90;;;;;;5422882;26;20225;-70
2024/04/17 11:04:56;;;;;;;6.27;5.20;;;8.50;99.90;;;;;;5421245;26;20225;-70
2024/04/17 11:07:22;;;;;;;6.57;5.87;;;8.40;99.90;;;;;;5421070;26;20662;-70
2024/04/17 11:09:51;;;;;;;5.23;4.40;;;8.00;99.90;;;;;;5420670;26;20778;-70
2024/04/17 11:12:19;;;;;;;6.07;4.20;;;7.10;43.60;;;;;;5420848;26;20221;-70
2024/04/17 11:14:48;;;;;;;6.67;4.67;;;6.80;92.40;;;;;;5421089;26;20225;-70
2024/04/17 11:17:14;;;;;;;20.70;10.67;;;6.70;96.80;;;;;;5421019;26;20710;-70
2024/04/17 11:19:45;;;;;;;7.37;6.23;;;7.10;99.90;;;;;;5420768;26;20229;-71
2024/04/17 11:22:14;;;;;;;8.30;6.20;;;7.50;99.90;;;;;;5420442;26;20532;-71
2024/04/17 11:24:47;;;;;;;9.77;6.93;;;7.70;99.90;;;;;;5420472;26;20655;-70
2024/04/17 11:27:15;;;;;;;9.40;5.20;;;7.80;99.90;;;;;;5420595;26;20248;-71
2024/04/17 11:29:46;;;;;;;7.83;5.70;;;7.30;99.90;;;;;;5420348;26;20782;-70
2024/04/17 11:32:12;;;;;;;7.67;5.40;;;7.20;99.90;;;;;;5421133;26;20186;-71
2024/04/17 11:34:41;;;;;;;6.47;4.70;;;7.10;99.90;;;;;;5420659;26;20277;-70
2024/04/17 11:37:09;;;;;;;5.73;4.00;;;7.30;99.90;;;;;;5421185;26;20221;-71
2024/04/17 11:39:39;;;;;;;4.50;3.37;;;7.40;99.90;;;;;;5420281;26;20230;-70
2024/04/17 11:42:07;;;;;;;4.73;3.30;;;7.50;99.90;;;;;;5420468;26;20717;-70
2024/04/17 11:44:39;;;;;;;3.63;3.33;;;7.70;77.60;;;;;;5420456;26;20296;-71
2024/04/17 11:47:09;;;;;;;3.57;3.27;;;8.00;26.60;;;;;;5420867;26;20209;-68
2024/04/17 11:49:37;;;;;;;10.07;4.00;;;8.10;1.00;;;;;;5420566;26;20326;-68
2024/04/17 11:52:05;;;;;;;6.83;4.47;;;8.40;1.00;;;;;;5420798;26;20638;-68
2024/04/17 11:54:36;;;;;;;6.40;3.83;;;8.70;1.00;;;;;;5420034;26;20603;-68
2024/04/17 11:57:03;;;;;;;6.20;3.50;;;9.10;1.00;;;;;;5420065;26;20552;-68
2024/04/17 11:59:32;;;;;;;5.67;3.47;;;9.40;1.00;;;;;;5419826;26;20233;-68
2024/04/17 12:01:58;;;;;;;5.03;3.60;;;9.30;1.00;;;;;;5420043;26;20233;-72
2024/04/17 12:04:29;;;;;;;8.17;3.73;;;8.90;1.00;;;;;;5419729;26;20221;-73
2024/04/17 12:06:55;;;;;;;5.97;3.60;;;8.50;1.00;;;;;;5420282;26;20222;-73
2024/04/17 12:09:25;;;;;;;5.57;3.90;;;8.10;1.00;;;;;;5419666;26;20230;-73
2024/04/17 12:11:54;;;;;;;4.53;3.13;;;7.90;1.00;;;;;;5420086;26;20247;-72
2024/04/17 12:14:22;;;;;;;4.73;3.53;;;7.80;1.00;;;;;;5420080;26;20267;-73
2024/04/17 12:16:48;;;;;;;3.67;3.13;;;7.60;1.00;;;;;;5419833;26;20226;-73
2024/04/17 12:19:17;;;;;;;4.27;3.67;;;7.80;18.50;;;;;;5419827;26;20257;-72
2024/04/17 12:21:43;;;;;;;5.70;3.53;;;7.90;94.10;;;;;;5419945;26;20226;-72
2024/04/17 12:24:18;;;;;;;5.93;5.00;;;8.10;99.90;;;;;;5419566;26;20221;-72
2024/04/17 12:26:52;;;;;;;5.33;4.00;;;8.20;1.00;;;;;;5419723;26;20251;-73
2024/04/17 12:29:23;;;;;;;3.77;3.23;;;8.40;1.00;;;;;;5419823;26;20225;-72
2024/04/17 12:31:52;;;;;;;6.70;3.50;;;8.50;1.00;;;;;;5419548;26;20822;-73
2024/04/17 12:34:25;;;;;;;6.77;3.50;;;8.50;1.00;;;;;;5419498;26;20572;-73
2024/04/17 12:36:53;;;;;;;5.40;3.07;;;8.80;1.00;;;;;;5419878;26;20339;-73
2024/04/17 12:39:22;;;;;;;4.17;2.40;;;8.90;7.80;;;;;;5419720;26;20264;-73
2024/04/17 12:41:51;;;;;;;4.20;3.27;;;9.20;99.90;;;;;;5419333;26;20281;-73
2024/04/17 12:44:19;;;;;;;3.23;2.70;;;9.80;99.90;;;;;;5419339;26;20218;-72
2024/04/17 12:46:51;;;;;;;2.33;2.10;;;9.90;1.00;;;;;;5419550;26;20269;-74
2024/04/17 12:49:17;;;;;;;3.77;1.70;;;10.50;1.00;;;;;;5419157;26;20209;-74
2024/04/17 12:51:46;;;;;;;2.03;1.60;;;11.90;1.00;;;;;;5418877;26;20609;-72
2024/04/17 12:54:14;;;;;;;1.83;1.33;;;13.40;99.90;;;;;;5418716;26;20222;-73
2024/04/17 12:56:40;;;;;;;2.63;1.80;;;14.80;99.90;;;;;;5419339;26;20251;-71
2024/04/17 12:59:09;;;;;;;2.60;1.27;;;13.70;1.00;;;;;;5419771;26;20218;-71
2024/04/17 13:01:35;;;;;;;2.43;1.53;;;14.60;1.00;;;;;;5419225;26;20237;-72